Time;durP1;ratioP1;P1;durP2;ratioP2;P2;SDS_P1;SDS_P2;PMS_P1;PMS_P2;Temp;Humidity;BMP_temperature;BMP_pressure;BME280_temperature;BME280_humidity;BME280_pressure;Samples;Min_cycle;Max_cycle;Signal;HPM_P1;HPM_P2
2023/07/05 00:02:25;;;;;;;10.25;6.90;;;22.10;99.90;;;;;;6277628;22;20011;-79
2023/07/05 00:06:20;;;;;;;8.68;5.07;;;21.60;99.90;;;;;;6275721;22;20014;-81
2023/07/05 00:09:41;;;;;;;6.93;4.70;;;22.10;99.90;;;;;;6248860;22;20043;-77
2023/07/05 00:18:44;;;;;;;8.10;5.40;;;21.70;99.90;;;;;;6301735;22;20043;-76
2023/07/05 00:24:07;;;;;;;8.80;5.53;;;20.70;99.90;;;;;;6300664;22;20019;-75
2023/07/05 00:34:21;;;;;;;11.48;5.63;;;20.90;99.90;;;;;;6184545;23;20017;-76
2023/07/05 00:36:48;;;;;;;9.20;5.03;;;21.20;99.90;;;;;;6158508;23;20025;-77
2023/07/05 00:47:27;;;;;;;7.75;5.30;;;21.70;99.90;;;;;;6200494;22;20077;-75
2023/07/05 00:53:59;;;;;;;7.38;5.07;;;21.20;99.90;;;;;;6228735;22;20020;-75
2023/07/05 00:56:41;;;;;;;7.90;4.90;;;21.30;99.90;;;;;;6277029;22;20039;-75
2023/07/05 00:59:13;;;;;;;6.85;4.75;;;21.10;99.90;;;;;;6239218;22;20026;-76
2023/07/05 01:04:42;;;;;;;6.82;4.30;;;21.40;99.90;;;;;;6209789;22;20453;31
2023/07/05 01:07:18;;;;;;;7.80;4.53;;;21.00;99.90;;;;;;6184169;23;20071;-76
2023/07/05 01:09:59;;;;;;;7.22;4.72;;;21.00;99.90;;;;;;6158715;23;20025;-76
2023/07/05 01:12:36;;;;;;;6.15;4.22;;;21.00;99.90;;;;;;6197202;22;20016;-76
2023/07/05 01:15:16;;;;;;;6.95;4.43;;;20.90;99.90;;;;;;6248545;22;20023;-76
2023/07/05 01:18:12;;;;;;;8.88;4.80;;;21.00;99.90;;;;;;6274974;22;20413;-76
2023/07/05 01:21:13;;;;;;;11.40;5.15;;;21.20;99.90;;;;;;6230149;22;20026;-76
2023/07/05 01:29:39;;;;;;;6.95;4.30;;;21.40;99.90;;;;;;6176642;22;20051;-75
2023/07/05 01:32:53;;;;;;;7.47;4.40;;;21.30;99.90;;;;;;6248801;22;20026;-75
2023/07/05 01:35:25;;;;;;;8.10;4.38;;;21.10;99.90;;;;;;6273553;22;20210;-76
2023/07/05 01:37:57;;;;;;;7.18;4.35;;;21.20;99.90;;;;;;6275198;22;20087;-78
2023/07/05 01:40:24;;;;;;;7.63;4.67;;;21.20;99.90;;;;;;6266080;22;20040;-76
2023/07/05 01:43:03;;;;;;;8.00;4.60;;;21.10;99.90;;;;;;6192308;23;20020;-76
2023/07/05 01:47:01;;;;;;;7.30;4.10;;;21.10;99.90;;;;;;6193734;22;20044;-77
2023/07/05 01:50:36;;;;;;;6.18;4.25;;;21.20;99.90;;;;;;6149873;23;20455;-78
2023/07/05 01:54:25;;;;;;;;;;;;;;;;;;;;;
2023/07/05 01:58:22;;;;;;;;;;;;;;;;;;;;;
2023/07/05 02:04:51;;;;;;;9.80;4.60;;;21.00;99.90;;;;;;5091978;27;20494;-76
2023/07/05 02:08:06;;;;;;;;;;;;;;;;;;;;;
2023/07/05 02:10:53;;;;;;;10.55;4.72;;;21.20;99.90;;;;;;5047642;28;20546;-75
2023/07/05 02:13:21;;;;;;;8.25;4.72;;;21.20;99.90;;;;;;5048019;28;20462;-77
2023/07/05 02:15:50;;;;;;;6.50;4.30;;;21.10;99.90;;;;;;5046078;28;20049;-79
2023/07/05 02:21:16;;;;;;;6.05;4.07;;;21.10;99.90;;;;;;5050481;28;20037;-79
2023/07/05 02:32:18;;;;;;;6.68;4.15;;;21.20;99.90;;;;;;5045888;28;20036;-77
2023/07/05 02:34:45;;;;;;;6.57;4.30;;;21.20;99.90;;;;;;5047980;28;20064;-78
2023/07/05 02:37:13;;;;;;;7.00;4.55;;;21.40;99.90;;;;;;5048267;28;21288;-79
2023/07/05 02:39:41;;;;;;;7.97;4.57;;;21.20;99.90;;;;;;5184345;23;20041;-78
2023/07/05 02:45:54;;;;;;;6.38;4.13;;;20.80;99.90;;;;;;5004484;28;20144;-76
2023/07/05 02:51:32;;;;;;;7.38;4.53;;;20.80;99.90;;;;;;5065930;23;20090;-81
2023/07/05 02:57:26;;;;;;;8.32;5.00;;;21.50;99.90;;;;;;5073506;28;20504;-76
2023/07/05 02:59:53;;;;;;;6.57;4.38;;;21.40;99.90;;;;;;5076296;28;20040;-77
2023/07/05 03:02:21;;;;;;;5.75;4.03;;;21.60;99.90;;;;;;5075490;28;20119;-76
2023/07/05 03:05:28;;;;;;;7.53;4.95;;;21.60;99.90;;;;;;5070827;28;20044;-78
2023/07/05 03:08:01;;;;;;;7.40;5.03;;;21.60;99.90;;;;;;5052453;28;20068;-79
2023/07/05 03:11:07;;;;;;;8.73;5.47;;;21.00;99.90;;;;;;5074311;28;20068;-81
2023/07/05 03:13:34;;;;;;;8.63;5.45;;;21.10;99.90;;;;;;5065793;28;20047;-75
2023/07/05 03:16:03;;;;;;;9.50;4.60;;;21.10;99.90;;;;;;5063469;28;20071;-77
2023/07/05 03:18:30;;;;;;;9.82;5.10;;;21.30;99.90;;;;;;5074665;28;20374;-78
2023/07/05 03:21:03;;;;;;;8.20;4.85;;;21.50;99.90;;;;;;5057370;28;20322;-78
2023/07/05 03:24:01;;;;;;;8.23;5.50;;;21.60;99.90;;;;;;5062283;28;20163;-78
2023/07/05 03:26:34;;;;;;;10.45;6.25;;;21.50;99.90;;;;;;5058665;28;20040;-78
2023/07/05 03:29:26;;;;;;;7.50;5.82;;;21.00;99.90;;;;;;5054195;28;20095;-76
2023/07/05 03:31:58;;;;;;;8.85;5.82;;;21.00;99.90;;;;;;5060102;28;20124;-77
2023/07/05 03:35:03;;;;;;;8.43;5.63;;;20.80;99.90;;;;;;5065911;28;20514;-81
2023/07/05 03:38:13;;;;;;;10.23;6.50;;;20.90;99.90;;;;;;5067388;28;20121;-80
2023/07/05 03:41:16;;;;;;;9.73;5.90;;;20.70;99.90;;;;;;5046989;28;20056;-77
2023/07/05 03:47:30;;;;;;;11.00;5.95;;;21.00;99.90;;;;;;5004787;28;20107;-76
2023/07/05 03:49:57;;;;;;;9.65;6.63;;;21.30;99.90;;;;;;5053017;22;20046;-77
2023/07/05 03:52:26;;;;;;;10.82;6.00;;;21.60;99.90;;;;;;5034315;28;20381;-77
2023/07/05 03:54:58;;;;;;;10.23;6.13;;;21.60;99.90;;;;;;5017116;28;20397;-74
2023/07/05 03:57:25;;;;;;;8.52;6.53;;;21.70;99.90;;;;;;5032722;28;20099;-77
2023/07/05 03:59:52;;;;;;;7.78;6.00;;;21.60;99.90;;;;;;5032205;28;20501;-77
2023/07/05 04:02:20;;;;;;;8.75;6.40;;;21.00;99.90;;;;;;5034470;28;20390;-78
2023/07/05 04:04:50;;;;;;;10.82;6.55;;;21.30;99.90;;;;;;5021313;28;20637;-79
2023/07/05 04:07:17;;;;;;;10.35;7.00;;;21.50;99.90;;;;;;5016558;28;20041;-76
2023/07/05 04:09:52;;;;;;;11.30;6.80;;;21.60;99.90;;;;;;5032006;28;20057;-78
2023/07/05 04:12:27;;;;;;;9.57;6.30;;;21.40;99.90;;;;;;5017594;28;20538;-76
2023/07/05 04:19:06;;;;;;;12.73;6.75;;;21.70;99.90;;;;;;4827079;24;20050;-80
2023/07/05 04:26:08;;;;;;;10.40;6.38;;;21.60;99.90;;;;;;4774888;29;20105;-77
2023/07/05 04:28:36;;;;;;;10.05;5.70;;;21.40;99.90;;;;;;4824289;29;20042;-75
2023/07/05 04:31:10;;;;;;;8.68;5.85;;;21.20;99.90;;;;;;4823373;29;20051;-80
2023/07/05 04:34:47;;;;;;;12.65;5.72;;;21.50;99.90;;;;;;4813121;29;20533;-77
2023/07/05 04:38:08;;;;;;;10.38;5.70;;;21.60;99.90;;;;;;4780775;29;20593;-77
2023/07/05 04:40:35;;;;;;;10.98;6.55;;;21.80;99.90;;;;;;4799082;29;20092;-78
2023/07/05 04:43:03;;;;;;;9.57;5.88;;;21.80;99.90;;;;;;4796536;29;20039;-77
2023/07/05 04:45:30;;;;;;;9.27;5.65;;;21.90;99.90;;;;;;4801513;29;20043;-79
2023/07/05 04:48:02;;;;;;;11.07;6.65;;;21.90;99.90;;;;;;4792156;29;20125;-79
2023/07/05 04:50:36;;;;;;;10.15;6.03;;;21.80;99.90;;;;;;4786856;30;20062;-79
2023/07/05 04:53:03;;;;;;;7.75;5.97;;;21.60;99.90;;;;;;4813889;29;20435;-79
2023/07/05 04:55:30;;;;;;;9.10;5.63;;;21.90;99.90;;;;;;4790252;29;20109;-78
2023/07/05 04:57:57;;;;;;;11.57;5.85;;;21.90;99.90;;;;;;4789194;29;20135;-77
2023/07/05 05:00:25;;;;;;;10.63;5.75;;;22.10;99.90;;;;;;4803739;29;20039;-77
2023/07/05 05:02:52;;;;;;;44.30;29.25;;;22.10;99.90;;;;;;4792622;29;20510;-79
2023/07/05 05:05:21;;;;;;;168.68;110.63;;;22.30;99.90;;;;;;4836848;24;20406;-76
2023/07/05 05:07:54;;;;;;;182.50;125.00;;;22.50;99.90;;;;;;4811809;29;20061;-77
2023/07/05 05:14:00;;;;;;;37.22;28.33;;;22.70;99.90;;;;;;4832571;29;20129;-77
2023/07/05 05:16:27;;;;;;;21.02;13.98;;;22.80;99.90;;;;;;4828222;29;20091;-77
2023/07/05 05:18:55;;;;;;;17.45;12.57;;;22.80;99.90;;;;;;4825793;29;20046;-77
2023/07/05 05:21:22;;;;;;;14.60;8.73;;;22.80;99.90;;;;;;4826270;29;20058;-78
2023/07/05 05:23:58;;;;;;;25.13;17.95;;;22.90;99.90;;;;;;4821196;29;20081;-79
2023/07/05 05:27:05;;;;;;;22.58;15.10;;;22.90;99.90;;;;;;4768538;29;20115;-76
2023/07/05 05:33:46;;;;;;;29.00;19.15;;;23.30;99.90;;;;;;4768722;30;20043;-76
2023/07/05 05:36:24;;;;;;;146.60;93.05;;;23.50;99.90;;;;;;5014343;23;20145;-79
2023/07/05 05:38:51;;;;;;;51.08;36.70;;;23.60;99.90;;;;;;4859401;29;20057;-76
2023/07/05 05:41:18;;;;;;;25.17;18.05;;;23.50;99.90;;;;;;4856840;29;20046;-78
2023/07/05 05:43:46;;;;;;;21.55;12.10;;;23.30;99.90;;;;;;4859885;29;20049;-76
2023/07/05 05:46:21;;;;;;;28.00;18.05;;;23.20;99.90;;;;;;4850495;29;20525;-74
2023/07/05 05:49:01;;;;;;;24.92;15.43;;;22.90;99.90;;;;;;4828421;29;20106;-77
2023/07/05 05:51:38;;;;;;;;;;;22.80;99.90;;;;;;4844565;29;20469;-76
2023/07/05 05:54:11;;;;;;;37.72;26.02;;;22.90;99.90;;;;;;4839547;29;19928;-77
2023/07/05 05:56:39;;;;;;;37.08;25.52;;;23.20;99.90;;;;;;4860758;29;20148;-78
2023/07/05 05:59:10;;;;;;;20.25;13.65;;;22.90;99.90;;;;;;4830319;29;20521;-76
2023/07/05 06:01:37;;;;;;;14.55;10.32;;;22.70;99.90;;;;;;4858653;29;20057;-76
2023/07/05 06:04:04;;;;;;;14.02;8.27;;;22.60;99.90;;;;;;4851256;29;20054;-78
2023/07/05 06:06:34;;;;;;;23.83;13.23;;;22.50;99.90;;;;;;4854959;29;20086;-76
2023/07/05 06:10:04;;;;;;;55.70;26.65;;;22.60;99.90;;;;;;4860314;29;20494;-75
2023/07/05 06:12:55;;;;;;;11.95;7.20;;;22.90;99.90;;;;;;4858471;29;20406;-77
2023/07/05 06:15:23;;;;;;;15.65;7.22;;;22.40;99.90;;;;;;4858586;29;20096;-77
2023/07/05 06:21:41;;;;;;;13.02;6.55;;;22.60;99.90;;;;;;4716321;30;20060;-78
2023/07/05 06:25:22;;;;;;;12.80;6.35;;;22.60;99.90;;;;;;4726567;29;20057;-80
2023/07/05 06:32:21;;;;;;;12.00;7.50;;;22.80;99.90;;;;;;4964690;23;20050;-79
2023/07/05 06:35:10;;;;;;;11.23;6.95;;;22.90;99.90;;;;;;4797445;29;20084;-77
2023/07/05 06:38:50;;;;;;;9.48;6.15;;;23.20;99.90;;;;;;4747451;30;20079;-77
2023/07/05 06:45:06;;;;;;;14.90;7.32;;;23.30;99.90;;;;;;4748725;30;20120;-76
2023/07/05 06:48:18;;;;;;;10.88;6.13;;;23.60;99.90;;;;;;4711347;30;20065;-77
2023/07/05 06:52:21;;;;;;;12.18;6.30;;;23.80;99.90;;;;;;4761642;30;20499;-76
2023/07/05 06:54:50;;;;;;;9.77;5.97;;;24.10;99.90;;;;;;4741489;30;20051;-76
2023/07/05 06:57:18;;;;;;;11.77;6.00;;;24.10;99.90;;;;;;4800934;29;20074;-75
2023/07/05 06:59:50;;;;;;;11.60;5.80;;;24.10;99.90;;;;;;4810754;29;20137;-78
2023/07/05 07:03:40;;;;;;;10.27;5.43;;;24.10;99.90;;;;;;4782723;29;20511;-76
2023/07/05 07:06:59;;;;;;;10.38;5.53;;;23.80;99.90;;;;;;4776014;30;20051;-78
2023/07/05 07:13:22;;;;;;;;;;;;;;;;;;;;;
2023/07/05 07:16:10;;;;;;;7.80;5.53;;;23.30;99.90;;;;;;4877238;29;20056;-78
2023/07/05 07:18:38;;;;;;;9.27;5.60;;;23.60;99.90;;;;;;4884645;29;20040;-77
2023/07/05 07:21:16;;;;;;;11.25;5.90;;;23.70;99.90;;;;;;4879517;29;20072;-79
2023/07/05 07:23:57;;;;;;;7.35;5.15;;;23.90;99.90;;;;;;4881728;29;20060;-78
2023/07/05 07:29:22;;;;;;;15.82;5.30;;;23.90;99.90;;;;;;4863684;29;20061;-78
2023/07/05 07:31:56;;;;;;;7.70;5.32;;;24.00;99.90;;;;;;4849261;29;20049;-77
2023/07/05 07:35:09;;;;;;;9.82;5.30;;;24.10;99.90;;;;;;4862173;29;20065;-77
2023/07/05 07:37:20;;;;;;;11.75;5.78;;;24.10;99.90;;;;;;5282198;23;20073;-76
2023/07/05 07:39:49;;;;;;;12.45;5.63;;;24.10;99.90;;;;;;4840276;29;20049;-77
2023/07/05 07:45:05;;;;;;;10.18;6.03;;;24.20;99.90;;;;;;4790748;27;20054;-78
2023/07/05 07:48:44;;;;;;;11.73;5.55;;;24.30;99.90;;;;;;4827924;29;20045;-76
2023/07/05 07:52:14;;;;;;;11.35;5.47;;;24.40;99.90;;;;;;4850206;29;20057;-77
2023/07/05 07:58:56;;;;;;;9.55;5.47;;;24.10;99.90;;;;;;4839544;29;20419;-78
2023/07/05 08:01:32;;;;;;;9.55;5.15;;;24.30;99.90;;;;;;4843956;29;20065;-78
2023/07/05 08:04:04;;;;;;;9.85;4.80;;;24.50;99.90;;;;;;4836167;29;20046;-78
2023/07/05 08:08:15;;;;;;;7.32;5.50;;;24.70;99.90;;;;;;4809806;29;20531;-76
2023/07/05 08:10:45;;;;;;;12.02;6.07;;;24.80;99.90;;;;;;4827584;29;20054;-75
2023/07/05 08:13:20;;;;;;;9.27;5.25;;;24.90;99.90;;;;;;4845505;29;20045;-77
2023/07/05 08:15:47;;;;;;;8.63;5.18;;;24.90;99.90;;;;;;4828834;29;20054;-77
2023/07/05 08:18:15;;;;;;;11.50;5.43;;;24.80;99.90;;;;;;4859451;23;20482;-77
2023/07/05 08:20:43;;;;;;;8.25;5.55;;;24.70;99.90;;;;;;4863103;29;20554;-77
2023/07/05 08:23:11;;;;;;;7.28;4.72;;;24.70;99.90;;;;;;4855278;29;20046;-77
2023/07/05 08:26:16;;;;;;;;;;;;;;;;;;;;;
2023/07/05 08:33:04;;;;;;;10.32;6.13;;;25.00;99.90;;;;;;4836560;29;20129;-77
2023/07/05 08:36:03;;;;;;;10.13;5.88;;;25.10;99.90;;;;;;4860341;29;20427;-78
2023/07/05 08:38:49;;;;;;;8.70;5.53;;;25.10;99.90;;;;;;4843047;29;20559;-78
2023/07/05 08:41:25;;;;;;;9.10;6.07;;;25.00;99.90;;;;;;4847802;29;20046;-77
2023/07/05 08:44:04;;;;;;;11.98;5.43;;;25.00;99.90;;;;;;4818988;29;20078;-77
2023/07/05 08:46:39;;;;;;;8.35;5.43;;;25.20;99.90;;;;;;4844885;29;20056;-77
2023/07/05 08:49:46;;;;;;;8.70;5.35;;;25.30;99.90;;;;;;4831203;29;20118;-78
2023/07/05 08:53:12;;;;;;;9.80;5.88;;;25.40;99.90;;;;;;4811691;29;20050;-78
2023/07/05 08:56:36;;;;;;;10.82;5.70;;;25.50;99.90;;;;;;4842133;29;20069;-80
2023/07/05 09:00:11;;;;;;;8.90;4.80;;;25.60;99.90;;;;;;4822243;29;20057;-78
2023/07/05 09:02:39;;;;;;;8.90;5.10;;;25.70;99.90;;;;;;4828384;29;20074;-76
2023/07/05 09:05:16;;;;;;;8.32;5.15;;;25.80;99.90;;;;;;4827879;29;20129;-76
2023/07/05 09:07:55;;;;;;;8.48;5.75;;;25.80;99.90;;;;;;4813920;29;20058;-76
2023/07/05 09:10:52;;;;;;;7.75;5.13;;;26.00;99.90;;;;;;4828429;29;20057;-77
2023/07/05 09:13:31;;;;;;;7.00;5.07;;;26.20;99.90;;;;;;4803617;29;20057;-77
2023/07/05 09:16:29;;;;;;;7.22;4.00;;;26.40;99.90;;;;;;4837020;29;20042;-80
2023/07/05 09:19:36;;;;;;;7.47;5.07;;;26.40;99.90;;;;;;4830242;29;20113;-77
2023/07/05 09:23:09;;;;;;;8.50;4.72;;;26.40;99.90;;;;;;4836717;29;20057;-78
2023/07/05 09:25:55;;;;;;;7.53;4.90;;;26.80;99.90;;;;;;4850176;29;20064;-75
2023/07/05 09:28:32;;;;;;;7.93;4.97;;;26.90;99.90;;;;;;4844349;29;20118;-76
2023/07/05 09:31:34;;;;;;;11.70;5.57;;;26.80;99.90;;;;;;4829969;29;20062;-77
2023/07/05 09:35:00;;;;;;;6.72;4.57;;;26.90;99.90;;;;;;4836465;29;20062;-74
2023/07/05 09:38:10;;;;;;;7.30;4.80;;;27.20;99.90;;;;;;4868055;23;20050;-78
2023/07/05 09:40:47;;;;;;;8.02;4.35;;;27.40;99.90;;;;;;4863814;29;20063;-75
2023/07/05 09:43:31;;;;;;;10.52;4.82;;;27.60;99.90;;;;;;4900354;29;20037;-75
2023/07/05 09:46:28;;;;;;;7.65;5.13;;;27.70;99.90;;;;;;4880043;29;20044;-74
2023/07/05 09:48:56;;;;;;;6.93;4.50;;;27.50;99.90;;;;;;4884443;29;20573;-75
2023/07/05 09:51:26;;;;;;;7.18;4.97;;;27.60;99.90;;;;;;4867149;29;20052;-74
2023/07/05 09:54:03;;;;;;;7.75;4.57;;;27.70;99.90;;;;;;4895639;29;20063;-75
2023/07/05 09:56:34;;;;;;;7.15;4.47;;;27.80;99.90;;;;;;4868113;29;20064;-78
2023/07/05 09:59:37;;;;;;;8.48;4.38;;;28.10;99.90;;;;;;4870108;29;20052;-74
2023/07/05 10:02:28;;;;;;;7.93;4.88;;;28.20;99.90;;;;;;4861709;29;20490;-74
2023/07/05 10:04:59;;;;;;;8.00;5.13;;;28.40;99.90;;;;;;4884605;29;20056;-73
2023/07/05 10:07:32;;;;;;;8.32;5.25;;;28.40;99.90;;;;;;4868016;29;20064;-73
2023/07/05 10:10:03;;;;;;;7.93;5.30;;;28.30;99.90;;;;;;4864097;29;20145;-73
2023/07/05 10:12:36;;;;;;;8.68;4.97;;;28.40;99.90;;;;;;4895449;29;20385;-77
2023/07/05 10:15:21;;;;;;;8.38;5.15;;;28.40;99.90;;;;;;4883036;29;20056;-75
2023/07/05 10:17:55;;;;;;;7.07;4.85;;;28.30;99.90;;;;;;4873716;29;20049;-73
2023/07/05 10:20:39;;;;;;;7.30;4.57;;;28.10;99.90;;;;;;4862433;29;20049;-74
2023/07/05 10:23:21;;;;;;;7.72;4.63;;;27.70;99.90;;;;;;4897271;29;20121;-79
2023/07/05 10:26:34;;;;;;;8.25;4.50;;;27.30;99.90;;;;;;4861488;29;20084;-75
2023/07/05 10:29:18;;;;;;;7.43;4.80;;;27.20;99.90;;;;;;4862931;29;20127;-74
2023/07/05 10:31:58;;;;;;;7.00;4.45;;;27.20;99.90;;;;;;4896701;29;20566;-74
2023/07/05 10:34:29;;;;;;;;;;;27.20;99.90;;;;;;4869966;29;20068;-73
2023/07/05 10:37:05;;;;;;;6.50;4.20;;;27.10;99.90;;;;;;4879923;29;19923;-78
2023/07/05 10:39:33;;;;;;;9.77;4.75;;;27.20;99.90;;;;;;4889009;29;20068;-75
2023/07/05 10:42:01;;;;;;;9.80;4.95;;;27.20;99.90;;;;;;4905408;29;20056;-74
2023/07/05 10:44:39;;;;;;;9.80;5.20;;;27.20;99.90;;;;;;4891322;23;20049;-75
2023/07/05 10:47:19;;;;;;;10.00;5.47;;;27.10;99.90;;;;;;4874216;29;20057;-72
2023/07/05 10:49:51;;;;;;;7.97;4.88;;;27.10;99.90;;;;;;4859024;29;20123;-75
2023/07/05 10:52:24;;;;;;;9.30;4.80;;;27.20;99.90;;;;;;4861913;29;20052;-76
2023/07/05 10:55:19;;;;;;;8.57;5.38;;;27.30;99.90;;;;;;4892209;29;20056;-73
2023/07/05 10:58:05;;;;;;;9.00;5.32;;;27.30;99.90;;;;;;4872312;29;20116;-75
2023/07/05 11:00:39;;;;;;;11.30;4.67;;;27.30;99.90;;;;;;4853973;29;20056;-73
2023/07/05 11:03:25;;;;;;;8.52;5.30;;;27.50;99.90;;;;;;4862295;29;20057;-75
2023/07/05 11:05:58;;;;;;;8.02;5.10;;;27.40;99.90;;;;;;4863360;29;20053;-76
2023/07/05 11:08:45;;;;;;;6.80;4.72;;;27.30;99.90;;;;;;4864588;29;20063;-73
2023/07/05 11:11:48;;;;;;;8.85;5.00;;;27.40;99.90;;;;;;4852032;29;20079;-77
2023/07/05 11:14:16;;;;;;;14.05;5.30;;;27.30;99.90;;;;;;4847491;29;20175;-73
2023/07/05 11:16:58;;;;;;;8.57;5.10;;;27.20;99.90;;;;;;4913792;23;20059;-73
2023/07/05 11:19:57;;;;;;;10.43;5.28;;;27.20;99.90;;;;;;4902249;29;20107;-75
2023/07/05 11:22:45;;;;;;;10.32;6.20;;;27.20;99.90;;;;;;4909956;29;20528;-77
2023/07/05 11:25:19;;;;;;;7.53;4.80;;;27.20;99.90;;;;;;4919596;29;20044;-74
2023/07/05 11:27:53;;;;;;;7.88;5.53;;;27.10;99.90;;;;;;4909312;29;20139;-74
2023/07/05 11:30:43;;;;;;;7.85;5.97;;;27.20;99.90;;;;;;4935475;29;20095;-77
2023/07/05 11:33:25;;;;;;;7.85;5.00;;;27.10;99.90;;;;;;4903270;29;20074;-79
2023/07/05 11:36:08;;;;;;;7.38;5.07;;;27.10;99.90;;;;;;4930964;29;20051;-75
2023/07/05 11:38:40;;;;;;;8.98;5.57;;;27.20;99.90;;;;;;4884868;29;20039;-74
2023/07/05 11:41:32;;;;;;;7.90;5.30;;;27.30;99.90;;;;;;4885333;29;20059;-78
2023/07/05 11:44:30;;;;;;;9.65;6.03;;;27.20;99.90;;;;;;4903047;29;20044;-72
2023/07/05 11:47:01;;;;;;;9.05;5.82;;;27.20;99.90;;;;;;4902964;29;20048;-76
2023/07/05 11:49:34;;;;;;;9.38;5.88;;;27.20;99.90;;;;;;4889221;29;20049;-75
2023/07/05 11:52:07;;;;;;;8.77;6.03;;;27.30;99.90;;;;;;4917515;29;20086;-75
2023/07/05 11:55:01;;;;;;;8.77;5.53;;;27.50;99.90;;;;;;4888009;29;20075;-77
2023/07/05 11:57:52;;;;;;;9.13;6.07;;;27.50;99.90;;;;;;4880541;29;20075;-81
2023/07/05 12:00:35;;;;;;;;;;;27.50;99.90;;;;;;4918642;29;20041;-76
2023/07/05 12:03:30;;;;;;;9.38;6.20;;;27.40;99.90;;;;;;4889095;29;19962;-78
2023/07/05 12:06:09;;;;;;;9.32;6.38;;;27.20;99.90;;;;;;4889656;29;20063;-75
2023/07/05 12:08:46;;;;;;;9.82;6.50;;;27.30;99.90;;;;;;4896081;29;20135;-77
2023/07/05 12:16:07;;;;;;;10.55;5.88;;;27.10;99.90;;;;;;5041627;23;20055;-76
2023/07/05 12:19:30;;;;;;;13.10;5.88;;;27.00;99.90;;;;;;4892580;29;20059;-77
2023/07/05 12:22:04;;;;;;;7.40;5.35;;;27.00;99.90;;;;;;4944523;23;21098;-76
2023/07/05 12:24:40;;;;;;;;;;;26.90;99.90;;;;;;4919345;29;20488;-78
2023/07/05 12:31:39;;;;;;;8.13;5.07;;;26.80;99.90;;;;;;4831274;29;20045;-75
2023/07/05 12:34:19;;;;;;;10.43;5.00;;;26.80;99.90;;;;;;4848456;29;20057;-77
2023/07/05 12:36:47;;;;;;;7.97;5.07;;;26.80;99.90;;;;;;4896066;29;20563;-74
2023/07/05 12:39:18;;;;;;;12.13;5.43;;;26.80;99.90;;;;;;4900136;29;20059;-74
2023/07/05 12:49:51;;;;;;;9.55;6.65;;;26.90;99.90;;;;;;4919930;29;20048;-73
2023/07/05 12:53:29;;;;;;;10.57;6.97;;;26.90;99.90;;;;;;4776522;29;20600;-77
2023/07/05 12:56:20;;;;;;;;;;;;;;;;;;;;;
2023/07/05 12:59:55;;;;;;;;;;;;;;;;;;;;;
2023/07/05 13:03:04;;;;;;;10.98;6.43;;;27.20;99.90;;;;;;4797020;29;20515;-77
2023/07/05 13:05:40;;;;;;;13.93;8.27;;;27.40;99.90;;;;;;4812719;29;20062;-75
2023/07/05 13:09:20;;;;;;;;;;;;;;;;;;;;;
2023/07/05 13:12:04;;;;;;;15.90;9.32;;;27.40;99.90;;;;;;4803089;29;20548;-73
2023/07/05 13:14:37;;;;;;;14.23;7.28;;;27.30;99.90;;;;;;4810357;29;20054;-76
2023/07/05 13:20:29;;;;;;;17.33;9.80;;;27.10;99.90;;;;;;5043681;23;20043;-77
2023/07/05 13:23:01;;;;;;;13.83;8.70;;;27.10;99.90;;;;;;4906897;29;20595;-74
2023/07/05 13:33:18;;;;;;;13.75;8.15;;;26.90;99.90;;;;;;4787329;29;20066;-75
2023/07/05 13:35:52;;;;;;;13.10;7.72;;;26.80;99.90;;;;;;4900705;29;20465;-77
2023/07/05 13:38:47;;;;;;;12.18;7.05;;;26.80;99.90;;;;;;4865484;29;20052;-78
2023/07/05 13:50:05;;;;;;;13.05;6.80;;;26.50;99.90;;;;;;4912979;29;19915;-83
2023/07/05 13:53:21;;;;;;;11.40;7.43;;;26.50;99.90;;;;;;4912901;29;20071;-79
2023/07/05 13:56:43;;;;;;;11.10;7.18;;;26.40;99.90;;;;;;4849182;29;20053;-81
2023/07/05 13:59:23;;;;;;;13.27;7.28;;;26.40;99.90;;;;;;4862274;29;20129;-79
2023/07/05 14:06:36;;;;;;;15.85;6.90;;;26.30;99.90;;;;;;4845481;29;20049;-82
2023/07/05 14:09:17;;;;;;;12.07;7.30;;;26.40;99.90;;;;;;4821774;29;20079;-80
2023/07/05 14:12:07;;;;;;;11.13;7.15;;;26.40;99.90;;;;;;4836181;29;20181;-81
2023/07/05 14:29:33;;;;;;;9.32;6.55;;;26.30;99.90;;;;;;4940859;29;20075;-79
2023/07/05 14:35:25;;;;;;;11.38;6.80;;;26.30;99.90;;;;;;5485724;23;20527;-78
2023/07/05 14:40:49;;;;;;;13.20;7.20;;;26.40;99.90;;;;;;5015652;23;20048;-79
2023/07/05 14:47:33;;;;;;;12.57;6.80;;;26.30;99.90;;;;;;4908637;29;20123;-80
2023/07/05 14:56:53;;;;;;;10.40;6.68;;;26.20;99.90;;;;;;5088924;23;20116;-81
2023/07/05 14:59:59;;;;;;;10.55;7.13;;;26.20;99.90;;;;;;4908221;29;20039;-75
2023/07/05 15:03:27;;;;;;;10.32;6.75;;;26.20;99.90;;;;;;4909741;29;20417;-79
2023/07/05 15:09:25;;;;;;;15.20;9.15;;;26.20;99.90;;;;;;1003073;27;20321;-78
2023/07/05 15:11:54;;;;;;;60.25;44.70;;;26.30;99.90;;;;;;4910306;29;20055;-78
2023/07/05 15:15:00;;;;;;;57.55;44.58;;;26.30;99.90;;;;;;4897797;29;20111;-72
2023/07/05 15:17:35;;;;;;;22.05;16.75;;;26.40;99.90;;;;;;4876103;29;20045;-76
2023/07/05 15:20:21;;;;;;;;;;;26.30;99.90;;;;;;4933494;23;20055;-78
2023/07/05 15:22:49;;;;;;;13.50;8.10;;;26.30;99.90;;;;;;4878680;29;19974;-78
2023/07/05 15:25:18;;;;;;;11.07;7.10;;;26.10;99.90;;;;;;4899765;29;20041;-78
2023/07/05 15:27:54;;;;;;;10.15;6.80;;;26.10;99.90;;;;;;4867240;29;20048;-75
2023/07/05 15:30:23;;;;;;;51.25;40.78;;;26.10;99.90;;;;;;4896745;29;20045;-76
2023/07/05 15:32:50;;;;;;;72.93;55.55;;;25.90;99.90;;;;;;4871352;29;20152;-76
2023/07/05 15:35:21;;;;;;;120.85;91.07;;;25.90;99.90;;;;;;4855434;29;20050;-76
2023/07/05 15:37:55;;;;;;;15.18;9.93;;;25.80;99.90;;;;;;4863482;29;20045;-75
2023/07/05 15:40:22;;;;;;;10.27;7.18;;;25.80;99.90;;;;;;4863830;29;20517;-77
2023/07/05 15:42:58;;;;;;;11.40;7.32;;;25.70;99.90;;;;;;4883334;23;20071;-76
2023/07/05 15:45:27;;;;;;;11.10;7.30;;;25.70;99.90;;;;;;4867712;29;20063;-75
2023/07/05 15:47:59;;;;;;;14.98;6.88;;;25.70;99.90;;;;;;4894314;29;20156;-78
2023/07/05 15:50:29;;;;;;;10.25;5.63;;;25.80;99.90;;;;;;4854604;29;20055;-75
2023/07/05 15:53:07;;;;;;;10.20;6.35;;;26.00;99.90;;;;;;4880866;29;20052;-74
2023/07/05 15:56:11;;;;;;;10.57;5.85;;;26.50;99.90;;;;;;4859026;29;20731;-77
2023/07/05 15:59:12;;;;;;;8.25;6.05;;;26.80;99.90;;;;;;4891790;29;20041;-76
2023/07/05 16:02:02;;;;;;;8.10;5.53;;;26.90;99.90;;;;;;4866659;29;20052;-78
2023/07/05 16:05:03;;;;;;;8.93;5.35;;;27.00;99.90;;;;;;4887324;24;20084;-75
2023/07/05 16:08:46;;;;;;;7.53;4.80;;;27.40;99.90;;;;;;4896297;29;20036;-75
2023/07/05 16:11:43;;;;;;;10.48;5.13;;;27.00;99.90;;;;;;4893107;29;20076;-76
2023/07/05 16:14:16;;;;;;;7.97;5.40;;;27.00;99.90;;;;;;4884691;29;20059;-74
2023/07/05 16:16:43;;;;;;;10.32;5.20;;;27.30;99.90;;;;;;4885224;29;20088;-75
2023/07/05 16:19:14;;;;;;;8.43;5.50;;;28.70;99.60;;;;;;4899104;29;20044;-76
2023/07/05 16:21:42;;;;;;;7.70;4.57;;;30.70;96.40;;;;;;4883553;29;20072;-75
2023/07/05 16:24:13;;;;;;;6.97;4.80;;;31.00;94.60;;;;;;4895255;29;20055;-74
2023/07/05 16:26:41;;;;;;;8.15;3.63;;;29.80;94.00;;;;;;4881098;29;20049;-76
2023/07/05 16:29:09;;;;;;;5.68;3.95;;;30.50;92.10;;;;;;4899998;29;20075;-76
2023/07/05 16:31:40;;;;;;;6.40;3.85;;;29.70;91.30;;;;;;4899389;29;20124;-75
2023/07/05 16:34:41;;;;;;;7.53;3.78;;;28.30;93.10;;;;;;4897331;29;20045;-75
2023/07/05 16:37:14;;;;;;;7.60;4.10;;;27.20;94.70;;;;;;4880002;29;20076;-81
2023/07/05 16:40:00;;;;;;;8.38;3.75;;;26.80;95.30;;;;;;4874950;29;20087;-73
2023/07/05 16:43:45;;;;;;;6.38;3.90;;;26.60;96.10;;;;;;4923914;23;20441;-76
2023/07/05 16:47:46;;;;;;;6.22;3.90;;;26.30;96.30;;;;;;4906315;29;20043;-77
2023/07/05 16:52:05;;;;;;;7.40;4.47;;;25.90;96.60;;;;;;4906511;29;20054;-79
2023/07/05 16:58:28;;;;;;;36.55;24.92;;;25.80;97.20;;;;;;4899587;29;20162;-76
2023/07/05 17:01:09;;;;;;;10.13;5.77;;;25.60;97.70;;;;;;4904538;29;20040;-79
2023/07/05 17:04:07;;;;;;;;;;;25.60;97.90;;;;;;4973433;23;20042;-76
2023/07/05 17:06:39;;;;;;;9.50;4.60;;;25.50;98.40;;;;;;4908523;29;20705;-77
2023/07/05 17:09:07;;;;;;;7.45;4.47;;;25.50;98.60;;;;;;4915793;29;20064;-77
2023/07/05 17:15:49;;;;;;;91.13;63.10;;;25.30;99.90;;;;;;4929165;29;20131;-79
2023/07/05 17:18:46;;;;;;;12.73;9.75;;;25.30;99.90;;;;;;4901831;29;20056;-77
2023/07/05 17:21:19;;;;;;;62.20;44.95;;;25.10;99.90;;;;;;4936683;29;20055;-75
2023/07/05 17:28:00;;;;;;;9.85;7.65;;;25.20;99.90;;;;;;4914767;29;20040;-77
2023/07/05 17:31:29;;;;;;;11.07;7.22;;;25.10;99.90;;;;;;4898602;29;20050;-76
2023/07/05 17:34:50;;;;;;;7.55;5.10;;;25.00;99.90;;;;;;4815114;29;20037;-75
2023/07/05 17:37:33;;;;;;;6.57;4.25;;;24.90;99.90;;;;;;4883549;29;20426;-76
2023/07/05 17:40:05;;;;;;;6.97;4.05;;;24.80;99.90;;;;;;4886411;29;20439;-78
2023/07/05 17:45:29;;;;;;;6.78;3.97;;;24.70;99.90;;;;;;4936669;29;20489;-75
2023/07/05 18:07:42;;;;;;;8.10;5.20;;;24.50;99.90;;;;;;4924081;29;20116;-78
2023/07/05 18:10:59;;;;;;;15.50;9.90;;;24.20;99.60;;;;;;4908933;29;20149;-81